sensor_id;sensor_type;location;lat;lon;timestamp;pressure;altitude;pressure_sealevel;temperature;humidity
48630;BME280;34426;52.180;4.462;2023-03-18T00:02:21;100808.31;;;9.84;85.34
48630;BME280;34426;52.180;4.462;2023-03-18T00:04:49;100809.44;;;9.83;84.97
48630;BME280;34426;52.180;4.462;2023-03-18T00:07:16;100812.78;;;9.85;85.30
48630;BME280;34426;52.180;4.462;2023-03-18T00:09:44;100810.75;;;9.75;85.34
48630;BME280;34426;52.180;4.462;2023-03-18T00:12:11;100814.16;;;9.82;85.93
48630;BME280;34426;52.180;4.462;2023-03-18T00:14:39;100822.22;;;9.79;85.95
48630;BME280;34426;52.180;4.462;2023-03-18T00:17:09;100824.19;;;9.78;85.91
48630;BME280;34426;52.180;4.462;2023-03-18T00:19:36;100823.53;;;9.71;86.17
48630;BME280;34426;52.180;4.462;2023-03-18T00:22:04;100826.06;;;9.73;85.73
48630;BME280;34426;52.180;4.462;2023-03-18T00:24:32;100834.25;;;9.79;85.73
48630;BME280;34426;52.180;4.462;2023-03-18T00:26:59;100829.19;;;9.76;85.60
48630;BME280;34426;52.180;4.462;2023-03-18T00:29:27;100821.38;;;9.78;86.31
48630;BME280;34426;52.180;4.462;2023-03-18T00:31:54;100826.97;;;9.78;86.35
48630;BME280;34426;52.180;4.462;2023-03-18T00:34:24;100822.50;;;9.77;86.61
48630;BME280;34426;52.180;4.462;2023-03-18T00:36:51;100829.81;;;9.83;86.57
48630;BME280;34426;52.180;4.462;2023-03-18T00:39:19;100830.34;;;9.80;85.92
48630;BME280;34426;52.180;4.462;2023-03-18T00:41:46;100825.91;;;9.84;85.98
48630;BME280;34426;52.180;4.462;2023-03-18T00:44:14;100829.56;;;9.85;85.60
48630;BME280;34426;52.180;4.462;2023-03-18T00:46:42;100834.56;;;9.83;86.15
48630;BME280;34426;52.180;4.462;2023-03-18T00:49:09;100835.56;;;9.72;86.68
48630;BME280;34426;52.180;4.462;2023-03-18T00:51:39;100830.19;;;9.65;86.26
48630;BME280;34426;52.180;4.462;2023-03-18T00:54:08;100826.72;;;9.53;86.17
48630;BME280;34426;52.180;4.462;2023-03-18T00:56:36;100820.16;;;9.42;86.95
48630;BME280;34426;52.180;4.462;2023-03-18T00:59:04;100823.81;;;9.43;87.17
48630;BME280;34426;52.180;4.462;2023-03-18T01:01:32;100827.69;;;9.42;87.93
48630;BME280;34426;52.180;4.462;2023-03-18T01:04:00;100826.59;;;9.43;87.53
48630;BME280;34426;52.180;4.462;2023-03-18T01:06:28;100832.16;;;9.43;87.06
48630;BME280;34426;52.180;4.462;2023-03-18T01:08:58;100829.91;;;9.40;86.79
48630;BME280;34426;52.180;4.462;2023-03-18T01:11:25;100825.34;;;9.33;86.13
48630;BME280;34426;52.180;4.462;2023-03-18T01:13:53;100823.03;;;9.25;86.84
48630;BME280;34426;52.180;4.462;2023-03-18T01:16:22;100818.47;;;9.19;86.72
48630;BME280;34426;52.180;4.462;2023-03-18T01:18:49;100825.91;;;9.09;86.14
48630;BME280;34426;52.180;4.462;2023-03-18T01:21:17;100821.41;;;9.08;86.88
48630;BME280;34426;52.180;4.462;2023-03-18T01:23:45;100820.31;;;9.09;87.22
48630;BME280;34426;52.180;4.462;2023-03-18T01:26:14;100826.16;;;9.07;86.83
48630;BME280;34426;52.180;4.462;2023-03-18T01:28:42;100829.53;;;9.09;87.89
48630;BME280;34426;52.180;4.462;2023-03-18T01:31:09;100819.91;;;9.22;87.61
48630;BME280;34426;52.180;4.462;2023-03-18T01:33:36;100824.19;;;9.29;87.38
48630;BME280;34426;52.180;4.462;2023-03-18T01:36:04;100819.78;;;9.33;87.05
48630;BME280;34426;52.180;4.462;2023-03-18T01:38:32;100817.81;;;9.34;87.95
48630;BME280;34426;52.180;4.462;2023-03-18T01:40:59;100820.50;;;9.46;88.05
48630;BME280;34426;52.180;4.462;2023-03-18T01:43:30;100814.69;;;9.52;87.40
48630;BME280;34426;52.180;4.462;2023-03-18T01:45:59;100817.75;;;9.51;87.29
48630;BME280;34426;52.180;4.462;2023-03-18T01:48:28;100826.41;;;9.54;87.85
48630;BME280;34426;52.180;4.462;2023-03-18T01:50:58;100829.84;;;9.61;87.28
48630;BME280;34426;52.180;4.462;2023-03-18T01:53:29;100836.34;;;9.67;86.87
48630;BME280;34426;52.180;4.462;2023-03-18T01:55:58;100841.72;;;9.74;86.93
48630;BME280;34426;52.180;4.462;2023-03-18T01:58:31;100834.72;;;9.71;87.26
48630;BME280;34426;52.180;4.462;2023-03-18T02:01:05;100835.88;;;9.75;86.89
48630;BME280;34426;52.180;4.462;2023-03-18T02:03:34;100835.94;;;9.80;87.04
48630;BME280;34426;52.180;4.462;2023-03-18T02:06:01;100833.72;;;9.82;86.49
48630;BME280;34426;52.180;4.462;2023-03-18T02:08:29;100832.63;;;9.83;87.18
48630;BME280;34426;52.180;4.462;2023-03-18T02:10:57;100834.56;;;9.83;86.75
48630;BME280;34426;52.180;4.462;2023-03-18T02:13:24;100850.06;;;9.95;86.40
48630;BME280;34426;52.180;4.462;2023-03-18T02:15:58;100837.50;;;9.98;86.69
48630;BME280;34426;52.180;4.462;2023-03-18T02:18:31;100831.38;;;10.01;85.83
48630;BME280;34426;52.180;4.462;2023-03-18T02:21:14;100833.56;;;9.94;86.16
48630;BME280;34426;52.180;4.462;2023-03-18T02:23:51;100838.88;;;9.95;86.65
48630;BME280;34426;52.180;4.462;2023-03-18T02:26:25;100836.63;;;9.92;86.68
48630;BME280;34426;52.180;4.462;2023-03-18T02:28:58;100835.00;;;10.01;85.89
48630;BME280;34426;52.180;4.462;2023-03-18T02:31:28;100848.44;;;10.05;85.65
48630;BME280;34426;52.180;4.462;2023-03-18T02:33:55;100840.53;;;9.96;86.01
48630;BME280;34426;52.180;4.462;2023-03-18T02:36:25;100835.19;;;9.90;86.56
48630;BME280;34426;52.180;4.462;2023-03-18T02:38:53;100835.41;;;9.83;86.75
48630;BME280;34426;52.180;4.462;2023-03-18T02:41:23;100828.59;;;9.74;86.96
48630;BME280;34426;52.180;4.462;2023-03-18T02:43:52;100827.75;;;9.74;87.15
48630;BME280;34426;52.180;4.462;2023-03-18T02:46:40;100832.97;;;9.65;87.30
48630;BME280;34426;52.180;4.462;2023-03-18T02:49:12;100834.28;;;9.57;87.56
48630;BME280;34426;52.180;4.462;2023-03-18T02:51:40;100837.34;;;9.56;87.44
48630;BME280;34426;52.180;4.462;2023-03-18T02:54:09;100836.75;;;9.54;87.59
48630;BME280;34426;52.180;4.462;2023-03-18T02:56:38;100845.13;;;9.54;87.25
48630;BME280;34426;52.180;4.462;2023-03-18T02:59:06;100843.50;;;9.58;87.82
48630;BME280;34426;52.180;4.462;2023-03-18T03:01:36;100849.59;;;9.55;87.36
48630;BME280;34426;52.180;4.462;2023-03-18T03:04:05;100854.66;;;9.58;87.90
48630;BME280;34426;52.180;4.462;2023-03-18T03:06:32;100858.63;;;9.62;86.94
48630;BME280;34426;52.180;4.462;2023-03-18T03:09:00;100855.50;;;9.58;87.15
48630;BME280;34426;52.180;4.462;2023-03-18T03:11:28;100850.25;;;9.62;87.01
48630;BME280;34426;52.180;4.462;2023-03-18T03:13:55;100853.75;;;9.74;87.26
48630;BME280;34426;52.180;4.462;2023-03-18T03:16:22;100857.13;;;9.76;86.73
48630;BME280;34426;52.180;4.462;2023-03-18T03:18:52;100848.16;;;9.74;87.11
48630;BME280;34426;52.180;4.462;2023-03-18T03:21:19;100850.81;;;9.86;86.40
48630;BME280;34426;52.180;4.462;2023-03-18T03:23:47;100852.44;;;9.82;85.94
48630;BME280;34426;52.180;4.462;2023-03-18T03:26:14;100850.59;;;9.92;86.18
48630;BME280;34426;52.180;4.462;2023-03-18T03:28:43;100863.28;;;10.05;85.66
48630;BME280;34426;52.180;4.462;2023-03-18T03:31:10;100857.38;;;10.01;86.32
48630;BME280;34426;52.180;4.462;2023-03-18T03:33:38;100856.78;;;9.99;86.31
48630;BME280;34426;52.180;4.462;2023-03-18T03:36:09;100854.50;;;9.91;86.39
48630;BME280;34426;52.180;4.462;2023-03-18T03:38:37;100855.34;;;9.92;86.15
48630;BME280;34426;52.180;4.462;2023-03-18T03:41:04;100862.91;;;9.96;86.38
48630;BME280;34426;52.180;4.462;2023-03-18T03:43:31;100863.28;;;10.05;86.27
48630;BME280;34426;52.180;4.462;2023-03-18T03:45:59;100863.00;;;10.07;86.24
48630;BME280;34426;52.180;4.462;2023-03-18T03:48:26;100867.75;;;10.06;85.66
48630;BME280;34426;52.180;4.462;2023-03-18T03:50:54;100876.72;;;10.08;86.48
48630;BME280;34426;52.180;4.462;2023-03-18T03:53:26;100882.22;;;10.25;85.03
48630;BME280;34426;52.180;4.462;2023-03-18T03:55:53;100889.19;;;10.22;85.17
48630;BME280;34426;52.180;4.462;2023-03-18T03:58:21;100894.56;;;10.29;85.06
48630;BME280;34426;52.180;4.462;2023-03-18T04:00:54;100881.38;;;10.24;85.76
48630;BME280;34426;52.180;4.462;2023-03-18T04:03:22;100889.91;;;10.13;86.28
48630;BME280;34426;52.180;4.462;2023-03-18T04:05:50;100891.53;;;10.09;86.93
48630;BME280;34426;52.180;4.462;2023-03-18T04:08:18;100900.44;;;10.06;87.06
48630;BME280;34426;52.180;4.462;2023-03-18T04:10:48;100898.13;;;9.97;87.38
48630;BME280;34426;52.180;4.462;2023-03-18T04:13:15;100902.88;;;9.97;88.27
48630;BME280;34426;52.180;4.462;2023-03-18T04:15:43;100900.38;;;10.00;88.45
48630;BME280;34426;52.180;4.462;2023-03-18T04:18:10;100897.50;;;9.90;88.72
48630;BME280;34426;52.180;4.462;2023-03-18T04:20:40;100906.63;;;9.81;88.79
48630;BME280;34426;52.180;4.462;2023-03-18T04:23:08;100900.13;;;9.75;90.06
48630;BME280;34426;52.180;4.462;2023-03-18T04:25:36;100899.06;;;9.81;90.13
48630;BME280;34426;52.180;4.462;2023-03-18T04:28:05;100908.03;;;9.83;90.00
48630;BME280;34426;52.180;4.462;2023-03-18T04:30:32;100911.28;;;9.75;90.50
48630;BME280;34426;52.180;4.462;2023-03-18T04:33:00;100907.53;;;9.86;90.35
48630;BME280;34426;52.180;4.462;2023-03-18T04:35:28;100904.03;;;9.74;90.22
48630;BME280;34426;52.180;4.462;2023-03-18T04:37:55;100908.56;;;9.80;90.40
48630;BME280;34426;52.180;4.462;2023-03-18T04:40:23;100909.72;;;9.84;90.76
48630;BME280;34426;52.180;4.462;2023-03-18T04:42:51;100909.09;;;9.77;91.21
48630;BME280;34426;52.180;4.462;2023-03-18T04:45:20;100910.78;;;9.78;90.92
48630;BME280;34426;52.180;4.462;2023-03-18T04:47:47;100923.00;;;9.72;91.27
48630;BME280;34426;52.180;4.462;2023-03-18T04:50:14;100919.41;;;9.77;91.45
48630;BME280;34426;52.180;4.462;2023-03-18T04:52:42;100915.72;;;9.71;91.24
48630;BME280;34426;52.180;4.462;2023-03-18T04:55:10;100920.91;;;9.84;91.12
48630;BME280;34426;52.180;4.462;2023-03-18T04:57:37;100928.13;;;9.80;91.56
48630;BME280;34426;52.180;4.462;2023-03-18T05:00:07;100924.75;;;9.78;91.17
48630;BME280;34426;52.180;4.462;2023-03-18T05:02:37;100930.38;;;9.83;91.10
48630;BME280;34426;52.180;4.462;2023-03-18T05:05:05;100934.47;;;9.76;91.57
48630;BME280;34426;52.180;4.462;2023-03-18T05:07:32;100929.69;;;9.71;91.25
48630;BME280;34426;52.180;4.462;2023-03-18T05:10:00;100932.41;;;9.66;91.44
48630;BME280;34426;52.180;4.462;2023-03-18T05:12:27;100936.88;;;9.67;91.85
48630;BME280;34426;52.180;4.462;2023-03-18T05:14:54;100947.22;;;9.66;91.72
48630;BME280;34426;52.180;4.462;2023-03-18T05:17:22;100946.44;;;9.71;92.30
48630;BME280;34426;52.180;4.462;2023-03-18T05:19:51;100946.94;;;9.68;91.74
48630;BME280;34426;52.180;4.462;2023-03-18T05:22:19;100942.47;;;9.67;92.38
48630;BME280;34426;52.180;4.462;2023-03-18T05:24:47;100936.88;;;9.67;91.98
48630;BME280;34426;52.180;4.462;2023-03-18T05:27:15;100931.81;;;9.64;91.49
48630;BME280;34426;52.180;4.462;2023-03-18T05:29:43;100934.16;;;9.72;91.75
48630;BME280;34426;52.180;4.462;2023-03-18T05:32:12;100931.44;;;9.77;91.76
48630;BME280;34426;52.180;4.462;2023-03-18T05:34:40;100934.81;;;9.79;91.03
48630;BME280;34426;52.180;4.462;2023-03-18T05:37:11;100933.00;;;9.68;91.64
48630;BME280;34426;52.180;4.462;2023-03-18T05:39:38;100933.56;;;9.70;92.02
48630;BME280;34426;52.180;4.462;2023-03-18T05:42:08;100931.09;;;9.74;90.98
48630;BME280;34426;52.180;4.462;2023-03-18T05:44:36;100932.28;;;9.78;91.09
48630;BME280;34426;52.180;4.462;2023-03-18T05:47:04;100933.97;;;9.79;90.76
48630;BME280;34426;52.180;4.462;2023-03-18T05:49:32;100938.06;;;9.71;91.64
48630;BME280;34426;52.180;4.462;2023-03-18T05:52:00;100932.00;;;9.57;91.00
48630;BME280;34426;52.180;4.462;2023-03-18T05:54:29;100933.63;;;9.53;91.91
48630;BME280;34426;52.180;4.462;2023-03-18T05:56:57;100926.00;;;9.44;92.71
48630;BME280;34426;52.180;4.462;2023-03-18T05:59:24;100935.13;;;9.39;92.24
48630;BME280;34426;52.180;4.462;2023-03-18T06:01:52;100933.19;;;9.40;92.71
48630;BME280;34426;52.180;4.462;2023-03-18T06:04:19;100933.63;;;9.31;92.36
48630;BME280;34426;52.180;4.462;2023-03-18T06:06:47;100937.28;;;9.32;92.94
48630;BME280;34426;52.180;4.462;2023-03-18T06:09:15;100941.94;;;9.26;92.93
48630;BME280;34426;52.180;4.462;2023-03-18T06:11:44;100936.84;;;9.23;92.63
48630;BME280;34426;52.180;4.462;2023-03-18T06:14:12;100949.03;;;9.17;93.57
48630;BME280;34426;52.180;4.462;2023-03-18T06:16:40;100948.38;;;9.10;92.89
48630;BME280;34426;52.180;4.462;2023-03-18T06:19:10;100957.88;;;9.09;92.95
48630;BME280;34426;52.180;4.462;2023-03-18T06:21:43;100966.09;;;8.99;92.97
48630;BME280;34426;52.180;4.462;2023-03-18T06:24:11;100960.09;;;8.90;93.44
48630;BME280;34426;52.180;4.462;2023-03-18T06:26:38;100959.59;;;8.93;93.47
48630;BME280;34426;52.180;4.462;2023-03-18T06:29:08;100972.09;;;8.91;93.65
48630;BME280;34426;52.180;4.462;2023-03-18T06:31:35;100969.97;;;8.98;93.48
48630;BME280;34426;52.180;4.462;2023-03-18T06:34:06;100985.69;;;9.04;93.30
48630;BME280;34426;52.180;4.462;2023-03-18T06:36:33;100984.09;;;9.08;93.61
48630;BME280;34426;52.180;4.462;2023-03-18T06:39:01;100986.00;;;9.24;93.53
48630;BME280;34426;52.180;4.462;2023-03-18T06:41:28;100994.00;;;9.38;92.87
48630;BME280;34426;52.180;4.462;2023-03-18T06:43:55;100998.56;;;9.44;93.45
48630;BME280;34426;52.180;4.462;2023-03-18T06:46:24;100998.19;;;9.57;93.13
48630;BME280;34426;52.180;4.462;2023-03-18T06:48:54;101005.84;;;9.66;92.75
48630;BME280;34426;52.180;4.462;2023-03-18T06:51:24;100996.78;;;9.76;92.30
48630;BME280;34426;52.180;4.462;2023-03-18T06:53:52;100995.22;;;9.85;92.08
48630;BME280;34426;52.180;4.462;2023-03-18T06:56:19;101003.69;;;9.90;91.99
48630;BME280;34426;52.180;4.462;2023-03-18T06:58:49;101005.88;;;9.88;92.27
48630;BME280;34426;52.180;4.462;2023-03-18T07:01:17;101004.53;;;9.91;92.24
48630;BME280;34426;52.180;4.462;2023-03-18T07:03:46;101010.97;;;9.91;92.57
48630;BME280;34426;52.180;4.462;2023-03-18T07:06:13;101012.31;;;9.89;91.86
48630;BME280;34426;52.180;4.462;2023-03-18T07:08:41;101017.91;;;9.89;92.38
48630;BME280;34426;52.180;4.462;2023-03-18T07:11:08;101014.34;;;9.93;92.66
48630;BME280;34426;52.180;4.462;2023-03-18T07:13:35;101013.78;;;9.96;92.50
48630;BME280;34426;52.180;4.462;2023-03-18T07:16:03;101014.00;;;9.90;92.52
48630;BME280;34426;52.180;4.462;2023-03-18T07:18:31;101008.75;;;9.93;92.39
48630;BME280;34426;52.180;4.462;2023-03-18T07:21:03;101017.22;;;10.04;92.22
48630;BME280;34426;52.180;4.462;2023-03-18T07:23:30;101015.28;;;10.04;92.37
48630;BME280;34426;52.180;4.462;2023-03-18T07:25:57;101023.41;;;10.06;92.65
48630;BME280;34426;52.180;4.462;2023-03-18T07:28:25;101020.59;;;10.06;92.40
48630;BME280;34426;52.180;4.462;2023-03-18T07:30:52;101021.69;;;10.21;92.29
48630;BME280;34426;52.180;4.462;2023-03-18T07:33:19;101024.97;;;10.18;91.75
48630;BME280;34426;52.180;4.462;2023-03-18T07:35:47;101028.28;;;10.15;91.85
48630;BME280;34426;52.180;4.462;2023-03-18T07:38:16;101022.38;;;10.12;92.50
48630;BME280;34426;52.180;4.462;2023-03-18T07:40:43;101025.09;;;10.07;92.51
48630;BME280;34426;52.180;4.462;2023-03-18T07:43:10;101023.00;;;10.19;92.27
48630;BME280;34426;52.180;4.462;2023-03-18T07:45:38;101024.47;;;10.21;92.60
48630;BME280;34426;52.180;4.462;2023-03-18T07:48:05;101035.53;;;10.33;91.51
48630;BME280;34426;52.180;4.462;2023-03-18T07:50:33;101037.78;;;10.36;92.12
48630;BME280;34426;52.180;4.462;2023-03-18T07:53:00;101030.28;;;10.42;91.75
48630;BME280;34426;52.180;4.462;2023-03-18T07:55:30;101020.06;;;10.52;91.51
48630;BME280;34426;52.180;4.462;2023-03-18T07:58:01;101018.31;;;10.73;91.46
48630;BME280;34426;52.180;4.462;2023-03-18T08:00:28;101013.63;;;10.79;90.75
48630;BME280;34426;52.180;4.462;2023-03-18T08:02:56;101023.16;;;10.83;91.29
48630;BME280;34426;52.180;4.462;2023-03-18T08:05:23;101012.56;;;10.90;91.04
48630;BME280;34426;52.180;4.462;2023-03-18T08:07:50;101019.41;;;11.04;90.15
48630;BME280;34426;52.180;4.462;2023-03-18T08:10:18;101020.66;;;11.18;89.49
48630;BME280;34426;52.180;4.462;2023-03-18T08:12:51;101031.34;;;11.21;88.77
48630;BME280;34426;52.180;4.462;2023-03-18T08:15:18;101033.69;;;11.40;89.20
48630;BME280;34426;52.180;4.462;2023-03-18T08:17:46;101040.97;;;11.41;88.62
48630;BME280;34426;52.180;4.462;2023-03-18T08:20:13;101042.69;;;11.47;88.53
48630;BME280;34426;52.180;4.462;2023-03-18T08:22:41;101039.91;;;11.47;87.61
48630;BME280;34426;52.180;4.462;2023-03-18T08:25:09;101032.06;;;11.49;87.53
48630;BME280;34426;52.180;4.462;2023-03-18T08:27:36;101034.00;;;11.43;87.49
48630;BME280;34426;52.180;4.462;2023-03-18T08:30:09;101021.06;;;11.37;87.91
48630;BME280;34426;52.180;4.462;2023-03-18T08:32:38;101024.16;;;11.41;87.70
48630;BME280;34426;52.180;4.462;2023-03-18T08:35:06;101032.38;;;11.52;88.03
48630;BME280;34426;52.180;4.462;2023-03-18T08:37:34;101039.97;;;11.57;87.41
48630;BME280;34426;52.180;4.462;2023-03-18T08:40:02;101049.88;;;11.70;87.34
48630;BME280;34426;52.180;4.462;2023-03-18T08:42:30;101050.47;;;11.77;86.49
48630;BME280;34426;52.180;4.462;2023-03-18T08:44:58;101038.38;;;11.71;86.39
48630;BME280;34426;52.180;4.462;2023-03-18T08:47:29;101043.13;;;11.65;86.71
48630;BME280;34426;52.180;4.462;2023-03-18T08:49:56;101048.53;;;11.77;86.84
48630;BME280;34426;52.180;4.462;2023-03-18T08:52:24;101059.25;;;11.90;85.81
48630;BME280;34426;52.180;4.462;2023-03-18T08:54:51;101060.44;;;11.99;85.83
48630;BME280;34426;52.180;4.462;2023-03-18T08:57:18;101059.00;;;11.97;84.93
48630;BME280;34426;52.180;4.462;2023-03-18T08:59:46;101055.41;;;12.02;84.84
48630;BME280;34426;52.180;4.462;2023-03-18T09:02:14;101073.97;;;12.18;84.13
48630;BME280;34426;52.180;4.462;2023-03-18T09:04:43;101071.53;;;12.37;83.66
48630;BME280;34426;52.180;4.462;2023-03-18T09:07:11;101083.59;;;12.37;82.02
48630;BME280;34426;52.180;4.462;2023-03-18T09:09:39;101076.34;;;12.46;82.32
48630;BME280;34426;52.180;4.462;2023-03-18T09:12:07;101067.91;;;12.46;82.41
48630;BME280;34426;52.180;4.462;2023-03-18T09:14:34;101067.31;;;12.39;81.40
48630;BME280;34426;52.180;4.462;2023-03-18T09:17:01;101057.47;;;12.31;81.62
48630;BME280;34426;52.180;4.462;2023-03-18T09:19:29;101073.97;;;12.18;81.02
48630;BME280;34426;52.180;4.462;2023-03-18T09:21:59;101069.81;;;12.30;81.83
48630;BME280;34426;52.180;4.462;2023-03-18T09:24:26;101076.34;;;12.46;80.98
48630;BME280;34426;52.180;4.462;2023-03-18T09:26:53;101085.06;;;12.60;80.90
48630;BME280;34426;52.180;4.462;2023-03-18T09:29:20;101078.06;;;12.68;80.96
48630;BME280;34426;52.180;4.462;2023-03-18T09:31:48;101073.31;;;12.78;80.42
48630;BME280;34426;52.180;4.462;2023-03-18T09:34:16;101076.44;;;12.87;79.65
48630;BME280;34426;52.180;4.462;2023-03-18T09:36:46;101073.38;;;12.98;79.70
48630;BME280;34426;52.180;4.462;2023-03-18T09:39:15;101082.13;;;13.22;79.11
48630;BME280;34426;52.180;4.462;2023-03-18T09:41:51;101067.50;;;13.36;78.26
48630;BME280;34426;52.180;4.462;2023-03-18T09:44:25;101059.91;;;13.21;77.56
48630;BME280;34426;52.180;4.462;2023-03-18T09:47:12;101062.16;;;13.19;77.53
48630;BME280;34426;52.180;4.462;2023-03-18T09:49:54;101068.34;;;13.16;77.48
48630;BME280;34426;52.180;4.462;2023-03-18T09:52:25;101084.66;;;13.24;78.15
48630;BME280;34426;52.180;4.462;2023-03-18T09:55:04;101088.31;;;13.35;76.55
48630;BME280;34426;52.180;4.462;2023-03-18T09:57:39;101092.78;;;13.51;76.61
48630;BME280;34426;52.180;4.462;2023-03-18T10:00:18;101092.50;;;13.52;74.88
48630;BME280;34426;52.180;4.462;2023-03-18T10:02:50;101085.19;;;13.51;74.98
48630;BME280;34426;52.180;4.462;2023-03-18T10:05:24;101080.97;;;13.44;74.88
48630;BME280;34426;52.180;4.462;2023-03-18T10:07:57;101084.38;;;13.30;76.03
48630;BME280;34426;52.180;4.462;2023-03-18T10:10:30;101092.19;;;13.13;76.21
48630;BME280;34426;52.180;4.462;2023-03-18T10:13:04;101092.72;;;13.05;76.81
48630;BME280;34426;52.180;4.462;2023-03-18T10:15:38;101083.81;;;13.23;76.16
48630;BME280;34426;52.180;4.462;2023-03-18T10:18:12;101082.69;;;13.35;76.36
48630;BME280;34426;52.180;4.462;2023-03-18T10:20:50;101093.63;;;13.56;75.60
48630;BME280;34426;52.180;4.462;2023-03-18T10:23:23;101084.06;;;13.62;75.61
48630;BME280;34426;52.180;4.462;2023-03-18T10:25:57;101080.97;;;13.69;74.19
48630;BME280;34426;52.180;4.462;2023-03-18T10:28:37;101076.72;;;13.82;73.58
48630;BME280;34426;52.180;4.462;2023-03-18T10:31:15;101076.38;;;14.04;73.79
48630;BME280;34426;52.180;4.462;2023-03-18T10:33:48;101071.88;;;14.08;73.68
48630;BME280;34426;52.180;4.462;2023-03-18T10:36:23;101074.94;;;14.21;72.66
48630;BME280;34426;52.180;4.462;2023-03-18T10:38:54;101069.28;;;14.21;72.66
48630;BME280;34426;52.180;4.462;2023-03-18T10:41:28;101072.88;;;14.37;72.22
48630;BME280;34426;52.180;4.462;2023-03-18T10:44:00;101066.88;;;14.64;71.63
48630;BME280;34426;52.180;4.462;2023-03-18T10:46:29;101083.38;;;14.76;71.21
48630;BME280;34426;52.180;4.462;2023-03-18T10:49:01;101079.53;;;14.67;70.79
48630;BME280;34426;52.180;4.462;2023-03-18T10:51:36;101079.25;;;14.63;70.94
48630;BME280;34426;52.180;4.462;2023-03-18T10:54:10;101083.50;;;14.60;71.28
48630;BME280;34426;52.180;4.462;2023-03-18T10:56:40;101084.06;;;14.57;71.11
48630;BME280;34426;52.180;4.462;2023-03-18T10:59:19;101082.25;;;14.77;70.49
48630;BME280;34426;52.180;4.462;2023-03-18T11:01:49;101081.88;;;14.93;69.65
48630;BME280;34426;52.180;4.462;2023-03-18T11:04:19;101074.25;;;14.99;68.93
48630;BME280;34426;52.180;4.462;2023-03-18T11:06:50;101087.19;;;15.00;69.29
48630;BME280;34426;52.180;4.462;2023-03-18T11:09:19;101087.28;;;14.85;70.00
48630;BME280;34426;52.180;4.462;2023-03-18T11:11:49;101086.25;;;14.71;69.21
48630;BME280;34426;52.180;4.462;2023-03-18T11:14:28;101097.63;;;14.35;69.68
48630;BME280;34426;52.180;4.462;2023-03-18T11:17:00;101090.91;;;14.41;69.76
48630;BME280;34426;52.180;4.462;2023-03-18T11:19:29;101090.59;;;14.32;70.50
48630;BME280;34426;52.180;4.462;2023-03-18T11:22:04;101095.44;;;14.27;70.64
48630;BME280;34426;52.180;4.462;2023-03-18T11:24:36;101106.38;;;14.44;71.50
48630;BME280;34426;52.180;4.462;2023-03-18T11:27:24;101095.34;;;14.57;70.95
48630;BME280;34426;52.180;4.462;2023-03-18T11:29:56;101100.69;;;14.54;71.19
48630;BME280;34426;52.180;4.462;2023-03-18T11:32:25;101101.59;;;14.44;70.85
48630;BME280;34426;52.180;4.462;2023-03-18T11:34:54;101103.81;;;14.52;71.37
48630;BME280;34426;52.180;4.462;2023-03-18T11:37:27;101098.75;;;14.39;70.63
48630;BME280;34426;52.180;4.462;2023-03-18T11:40:15;101103.91;;;14.22;71.63
48630;BME280;34426;52.180;4.462;2023-03-18T11:42:46;101101.66;;;14.14;72.39
48630;BME280;34426;52.180;4.462;2023-03-18T11:45:32;101086.78;;;14.08;73.14
48630;BME280;34426;52.180;4.462;2023-03-18T11:48:01;101083.13;;;14.03;73.10
48630;BME280;34426;52.180;4.462;2023-03-18T11:50:37;101075.25;;;13.99;72.76
48630;BME280;34426;52.180;4.462;2023-03-18T11:53:10;101069.06;;;13.97;72.37
48630;BME280;34426;52.180;4.462;2023-03-18T11:55:44;101078.63;;;14.07;71.15
48630;BME280;34426;52.180;4.462;2023-03-18T11:58:37;101069.00;;;14.23;71.90
48630;BME280;34426;52.180;4.462;2023-03-18T12:01:13;101062.75;;;14.41;69.12
48630;BME280;34426;52.180;4.462;2023-03-18T12:04:04;101063.22;;;14.63;68.34
48630;BME280;34426;52.180;4.462;2023-03-18T12:06:42;101054.88;;;14.87;68.08
48630;BME280;34426;52.180;4.462;2023-03-18T12:09:19;101057.47;;;15.18;67.84
48630;BME280;34426;52.180;4.462;2023-03-18T12:12:04;101052.84;;;15.32;66.68
48630;BME280;34426;52.180;4.462;2023-03-18T12:14:41;101056.16;;;15.39;67.59
48630;BME280;34426;52.180;4.462;2023-03-18T12:17:20;101055.75;;;15.56;65.89
48630;BME280;34426;52.180;4.462;2023-03-18T12:20:19;101059.00;;;15.68;65.11
48630;BME280;34426;52.180;4.462;2023-03-18T12:23:02;101061.88;;;15.92;64.93
48630;BME280;34426;52.180;4.462;2023-03-18T12:25:40;101069.94;;;15.75;63.85
48630;BME280;34426;52.180;4.462;2023-03-18T12:28:17;101066.13;;;15.89;63.27
48630;BME280;34426;52.180;4.462;2023-03-18T12:33:59;101060.50;;;15.89;63.29
48630;BME280;34426;52.180;4.462;2023-03-18T12:36:37;101057.72;;;16.32;62.15
48630;BME280;34426;52.180;4.462;2023-03-18T12:39:34;101058.88;;;16.74;60.85
48630;BME280;34426;52.180;4.462;2023-03-18T12:42:06;101053.72;;;16.81;61.23
48630;BME280;34426;52.180;4.462;2023-03-18T12:44:42;101059.50;;;17.08;60.80
48630;BME280;34426;52.180;4.462;2023-03-18T12:47:16;101059.94;;;17.15;59.39
48630;BME280;34426;52.180;4.462;2023-03-18T12:49:48;101063.69;;;16.92;59.77
48630;BME280;34426;52.180;4.462;2023-03-18T12:52:22;101059.09;;;17.15;59.21
48630;BME280;34426;52.180;4.462;2023-03-18T12:54:56;101059.19;;;16.91;60.60
48630;BME280;34426;52.180;4.462;2023-03-18T12:57:33;101058.81;;;17.16;59.91
48630;BME280;34426;52.180;4.462;2023-03-18T13:00:06;101051.69;;;17.00;58.80
48630;BME280;34426;52.180;4.462;2023-03-18T13:02:46;101054.28;;;17.15;59.11
48630;BME280;34426;52.180;4.462;2023-03-18T13:05:25;101048.63;;;17.15;57.80
48630;BME280;34426;52.180;4.462;2023-03-18T13:10:50;101046.84;;;16.87;58.77
48630;BME280;34426;52.180;4.462;2023-03-18T13:13:22;101048.81;;;17.38;56.78
48630;BME280;34426;52.180;4.462;2023-03-18T13:15:55;101051.16;;;17.82;54.23
48630;BME280;34426;52.180;4.462;2023-03-18T13:18:26;101046.56;;;18.00;54.50